sensor_id;sensor_type;location;lat;lon;timestamp;temperature;humidity
49549;DHT22;35450;44.518;7.466;2024-02-21T00:00:44;9.90;66.80
49549;DHT22;35450;44.518;7.466;2024-02-21T00:03:48;9.90;67.00
49549;DHT22;35450;44.518;7.466;2024-02-21T00:06:52;9.80;66.20
49549;DHT22;35450;44.518;7.466;2024-02-21T00:09:56;9.80;64.80
49549;DHT22;35450;44.518;7.466;2024-02-21T00:13:00;9.90;64.20
49549;DHT22;35450;44.518;7.466;2024-02-21T00:16:05;10.00;63.60
49549;DHT22;35450;44.518;7.466;2024-02-21T00:19:09;10.10;63.90
49549;DHT22;35450;44.518;7.466;2024-02-21T00:22:13;10.00;64.00
49549;DHT22;35450;44.518;7.466;2024-02-21T00:25:17;10.00;63.20
49549;DHT22;35450;44.518;7.466;2024-02-21T00:28:21;10.10;64.20
49549;DHT22;35450;44.518;7.466;2024-02-21T00:31:25;10.00;65.00
49549;DHT22;35450;44.518;7.466;2024-02-21T00:34:29;9.90;64.70
49549;DHT22;35450;44.518;7.466;2024-02-21T00:37:33;9.80;65.40
49549;DHT22;35450;44.518;7.466;2024-02-21T00:40:37;9.70;65.80
49549;DHT22;35450;44.518;7.466;2024-02-21T00:43:41;9.70;65.00
49549;DHT22;35450;44.518;7.466;2024-02-21T00:46:45;9.80;65.40
49549;DHT22;35450;44.518;7.466;2024-02-21T00:49:50;9.80;64.80
49549;DHT22;35450;44.518;7.466;2024-02-21T00:52:54;9.80;64.60
49549;DHT22;35450;44.518;7.466;2024-02-21T00:55:58;9.90;64.90
49549;DHT22;35450;44.518;7.466;2024-02-21T00:59:03;9.90;64.40
49549;DHT22;35450;44.518;7.466;2024-02-21T01:02:07;9.90;64.80
49549;DHT22;35450;44.518;7.466;2024-02-21T01:05:10;10.00;64.80
49549;DHT22;35450;44.518;7.466;2024-02-21T01:08:14;9.80;65.50
49549;DHT22;35450;44.518;7.466;2024-02-21T01:11:19;9.90;65.30
49549;DHT22;35450;44.518;7.466;2024-02-21T01:14:23;9.80;64.50
49549;DHT22;35450;44.518;7.466;2024-02-21T01:17:27;9.80;65.70
49549;DHT22;35450;44.518;7.466;2024-02-21T01:20:31;9.70;65.90
49549;DHT22;35450;44.518;7.466;2024-02-21T01:23:36;9.70;65.70
49549;DHT22;35450;44.518;7.466;2024-02-21T01:26:40;9.60;67.10
49549;DHT22;35450;44.518;7.466;2024-02-21T01:29:45;9.60;68.60
49549;DHT22;35450;44.518;7.466;2024-02-21T01:32:51;9.40;68.30
49549;DHT22;35450;44.518;7.466;2024-02-21T01:35:55;9.30;67.70
49549;DHT22;35450;44.518;7.466;2024-02-21T01:38:59;9.40;67.70
49549;DHT22;35450;44.518;7.466;2024-02-21T01:42:03;9.50;67.90
49549;DHT22;35450;44.518;7.466;2024-02-21T01:45:07;9.60;66.90
49549;DHT22;35450;44.518;7.466;2024-02-21T01:48:12;9.70;67.30
49549;DHT22;35450;44.518;7.466;2024-02-21T01:51:16;9.60;68.10
49549;DHT22;35450;44.518;7.466;2024-02-21T01:54:21;9.60;70.30
49549;DHT22;35450;44.518;7.466;2024-02-21T01:57:26;9.50;67.80
49549;DHT22;35450;44.518;7.466;2024-02-21T02:00:30;9.60;67.60
49549;DHT22;35450;44.518;7.466;2024-02-21T02:03:34;9.50;67.90
49549;DHT22;35450;44.518;7.466;2024-02-21T02:06:39;9.40;68.70
49549;DHT22;35450;44.518;7.466;2024-02-21T02:09:43;9.30;70.50
49549;DHT22;35450;44.518;7.466;2024-02-21T02:12:47;9.30;68.90
49549;DHT22;35450;44.518;7.466;2024-02-21T02:15:51;9.10;70.70
49549;DHT22;35450;44.518;7.466;2024-02-21T02:18:55;9.00;71.50
49549;DHT22;35450;44.518;7.466;2024-02-21T02:22:10;9.00;71.60
49549;DHT22;35450;44.518;7.466;2024-02-21T02:25:15;9.00;70.50
49549;DHT22;35450;44.518;7.466;2024-02-21T02:28:20;8.90;69.60
49549;DHT22;35450;44.518;7.466;2024-02-21T02:31:24;9.00;69.50
49549;DHT22;35450;44.518;7.466;2024-02-21T02:34:28;9.00;69.30
49549;DHT22;35450;44.518;7.466;2024-02-21T02:37:32;9.00;69.00
49549;DHT22;35450;44.518;7.466;2024-02-21T02:40:36;9.20;68.50
49549;DHT22;35450;44.518;7.466;2024-02-21T02:43:40;9.30;68.50
49549;DHT22;35450;44.518;7.466;2024-02-21T02:46:44;9.30;68.20
49549;DHT22;35450;44.518;7.466;2024-02-21T02:49:48;9.10;71.10
49549;DHT22;35450;44.518;7.466;2024-02-21T02:52:55;9.10;69.20
49549;DHT22;35450;44.518;7.466;2024-02-21T02:55:59;8.90;69.50
49549;DHT22;35450;44.518;7.466;2024-02-21T02:59:03;9.00;68.90
49549;DHT22;35450;44.518;7.466;2024-02-21T03:02:07;9.00;68.80
49549;DHT22;35450;44.518;7.466;2024-02-21T03:05:16;8.90;68.90
49549;DHT22;35450;44.518;7.466;2024-02-21T03:08:20;9.00;69.20
49549;DHT22;35450;44.518;7.466;2024-02-21T03:11:24;8.90;70.00
49549;DHT22;35450;44.518;7.466;2024-02-21T03:14:33;8.80;69.30
49549;DHT22;35450;44.518;7.466;2024-02-21T03:17:37;8.90;68.30
49549;DHT22;35450;44.518;7.466;2024-02-21T03:20:42;9.00;67.90
49549;DHT22;35450;44.518;7.466;2024-02-21T03:23:46;8.90;69.20
49549;DHT22;35450;44.518;7.466;2024-02-21T03:26:50;8.90;69.00
49549;DHT22;35450;44.518;7.466;2024-02-21T03:29:54;8.90;68.50
49549;DHT22;35450;44.518;7.466;2024-02-21T03:32:58;8.80;69.10
49549;DHT22;35450;44.518;7.466;2024-02-21T03:36:02;8.80;69.00
49549;DHT22;35450;44.518;7.466;2024-02-21T03:39:07;8.70;68.80
49549;DHT22;35450;44.518;7.466;2024-02-21T03:42:12;8.80;68.50
49549;DHT22;35450;44.518;7.466;2024-02-21T03:45:16;8.80;68.70
49549;DHT22;35450;44.518;7.466;2024-02-21T03:48:21;8.80;68.10
49549;DHT22;35450;44.518;7.466;2024-02-21T03:51:25;8.80;68.10
49549;DHT22;35450;44.518;7.466;2024-02-21T03:54:29;8.90;68.10
49549;DHT22;35450;44.518;7.466;2024-02-21T03:57:33;9.00;68.00
49549;DHT22;35450;44.518;7.466;2024-02-21T04:00:37;8.90;68.70
49549;DHT22;35450;44.518;7.466;2024-02-21T04:03:41;8.70;69.40
49549;DHT22;35450;44.518;7.466;2024-02-21T04:06:49;8.70;69.30
49549;DHT22;35450;44.518;7.466;2024-02-21T04:09:53;8.60;69.90
49549;DHT22;35450;44.518;7.466;2024-02-21T04:12:57;8.60;69.90
49549;DHT22;35450;44.518;7.466;2024-02-21T04:16:01;8.60;69.90
49549;DHT22;35450;44.518;7.466;2024-02-21T04:19:05;8.70;69.60
49549;DHT22;35450;44.518;7.466;2024-02-21T04:22:10;8.70;69.60
49549;DHT22;35450;44.518;7.466;2024-02-21T04:25:15;8.70;70.50
49549;DHT22;35450;44.518;7.466;2024-02-21T04:28:18;8.60;70.50
49549;DHT22;35450;44.518;7.466;2024-02-21T04:31:22;8.60;70.10
49549;DHT22;35450;44.518;7.466;2024-02-21T04:34:26;8.70;70.70
49549;DHT22;35450;44.518;7.466;2024-02-21T04:37:30;8.70;70.90
49549;DHT22;35450;44.518;7.466;2024-02-21T04:40:35;8.80;70.70
49549;DHT22;35450;44.518;7.466;2024-02-21T04:43:38;8.80;70.90
49549;DHT22;35450;44.518;7.466;2024-02-21T04:46:43;8.70;71.20
49549;DHT22;35450;44.518;7.466;2024-02-21T04:49:47;8.60;71.70
49549;DHT22;35450;44.518;7.466;2024-02-21T04:52:51;8.60;71.70
49549;DHT22;35450;44.518;7.466;2024-02-21T04:55:55;8.60;71.80
49549;DHT22;35450;44.518;7.466;2024-02-21T04:58:59;8.50;71.80
49549;DHT22;35450;44.518;7.466;2024-02-21T05:02:03;8.60;72.20
49549;DHT22;35450;44.518;7.466;2024-02-21T05:05:07;8.50;72.60
49549;DHT22;35450;44.518;7.466;2024-02-21T05:08:12;8.50;73.00
49549;DHT22;35450;44.518;7.466;2024-02-21T05:11:16;8.50;73.30
49549;DHT22;35450;44.518;7.466;2024-02-21T05:14:20;8.50;73.70
49549;DHT22;35450;44.518;7.466;2024-02-21T05:17:24;8.40;73.70
49549;DHT22;35450;44.518;7.466;2024-02-21T05:20:28;8.40;73.80
49549;DHT22;35450;44.518;7.466;2024-02-21T05:23:32;8.30;73.50
49549;DHT22;35450;44.518;7.466;2024-02-21T05:26:36;8.30;73.70
49549;DHT22;35450;44.518;7.466;2024-02-21T05:29:40;8.30;73.50
49549;DHT22;35450;44.518;7.466;2024-02-21T05:32:44;8.30;73.40
49549;DHT22;35450;44.518;7.466;2024-02-21T05:35:48;8.30;73.10
49549;DHT22;35450;44.518;7.466;2024-02-21T05:38:52;8.50;73.20
49549;DHT22;35450;44.518;7.466;2024-02-21T05:41:56;8.50;73.30
49549;DHT22;35450;44.518;7.466;2024-02-21T05:45:00;8.50;72.50
49549;DHT22;35450;44.518;7.466;2024-02-21T05:48:04;8.40;72.60
49549;DHT22;35450;44.518;7.466;2024-02-21T05:51:08;8.30;73.10
49549;DHT22;35450;44.518;7.466;2024-02-21T05:54:12;8.20;73.90
49549;DHT22;35450;44.518;7.466;2024-02-21T05:57:18;8.30;73.50
49549;DHT22;35450;44.518;7.466;2024-02-21T06:00:22;8.40;72.60
49549;DHT22;35450;44.518;7.466;2024-02-21T06:03:28;8.30;73.40
49549;DHT22;35450;44.518;7.466;2024-02-21T06:06:32;7.90;75.20
49549;DHT22;35450;44.518;7.466;2024-02-21T06:09:36;7.90;74.90
49549;DHT22;35450;44.518;7.466;2024-02-21T06:12:40;8.10;72.70
49549;DHT22;35450;44.518;7.466;2024-02-21T06:15:44;8.20;72.40
49549;DHT22;35450;44.518;7.466;2024-02-21T06:18:49;8.20;73.10
49549;DHT22;35450;44.518;7.466;2024-02-21T06:21:52;8.10;73.40
49549;DHT22;35450;44.518;7.466;2024-02-21T06:24:56;8.20;73.90
49549;DHT22;35450;44.518;7.466;2024-02-21T06:28:00;8.20;73.90
49549;DHT22;35450;44.518;7.466;2024-02-21T06:31:04;8.20;74.10
49549;DHT22;35450;44.518;7.466;2024-02-21T06:34:08;8.20;74.30
49549;DHT22;35450;44.518;7.466;2024-02-21T06:37:12;8.30;74.50
49549;DHT22;35450;44.518;7.466;2024-02-21T06:40:16;8.40;74.60
49549;DHT22;35450;44.518;7.466;2024-02-21T06:43:20;8.30;75.00
49549;DHT22;35450;44.518;7.466;2024-02-21T06:46:26;8.40;75.30
49549;DHT22;35450;44.518;7.466;2024-02-21T06:49:31;8.30;75.40
49549;DHT22;35450;44.518;7.466;2024-02-21T06:52:35;8.40;75.20
49549;DHT22;35450;44.518;7.466;2024-02-21T06:55:39;8.40;75.50
49549;DHT22;35450;44.518;7.466;2024-02-21T06:58:44;8.50;75.40
49549;DHT22;35450;44.518;7.466;2024-02-21T07:01:49;8.60;75.40
49549;DHT22;35450;44.518;7.466;2024-02-21T07:04:53;8.50;75.80
49549;DHT22;35450;44.518;7.466;2024-02-21T07:07:57;8.60;76.20
49549;DHT22;35450;44.518;7.466;2024-02-21T07:11:01;8.70;76.00
49549;DHT22;35450;44.518;7.466;2024-02-21T07:14:05;8.70;76.20
49549;DHT22;35450;44.518;7.466;2024-02-21T07:17:09;8.70;76.90
49549;DHT22;35450;44.518;7.466;2024-02-21T07:20:12;8.70;76.80
49549;DHT22;35450;44.518;7.466;2024-02-21T07:23:16;8.70;75.90
49549;DHT22;35450;44.518;7.466;2024-02-21T07:26:20;8.90;75.30
49549;DHT22;35450;44.518;7.466;2024-02-21T07:29:25;9.00;74.70
49549;DHT22;35450;44.518;7.466;2024-02-21T07:32:30;9.10;74.80
49549;DHT22;35450;44.518;7.466;2024-02-21T07:35:34;9.20;73.90
49549;DHT22;35450;44.518;7.466;2024-02-21T07:38:38;9.30;73.90
49549;DHT22;35450;44.518;7.466;2024-02-21T07:41:42;9.40;73.00
49549;DHT22;35450;44.518;7.466;2024-02-21T07:44:48;9.50;72.40
49549;DHT22;35450;44.518;7.466;2024-02-21T07:47:52;9.70;71.20
49549;DHT22;35450;44.518;7.466;2024-02-21T07:50:56;9.80;70.80
49549;DHT22;35450;44.518;7.466;2024-02-21T07:54:00;9.90;70.30
49549;DHT22;35450;44.518;7.466;2024-02-21T07:57:04;9.90;70.60
49549;DHT22;35450;44.518;7.466;2024-02-21T08:00:09;10.10;70.60
49549;DHT22;35450;44.518;7.466;2024-02-21T08:03:17;10.20;70.60
49549;DHT22;35450;44.518;7.466;2024-02-21T08:06:22;10.20;70.10
49549;DHT22;35450;44.518;7.466;2024-02-21T08:09:27;10.20;69.80
49549;DHT22;35450;44.518;7.466;2024-02-21T08:12:31;10.30;69.60
49549;DHT22;35450;44.518;7.466;2024-02-21T08:15:36;10.40;69.70
49549;DHT22;35450;44.518;7.466;2024-02-21T08:18:44;10.50;69.40
49549;DHT22;35450;44.518;7.466;2024-02-21T08:21:48;10.60;69.90
49549;DHT22;35450;44.518;7.466;2024-02-21T08:24:53;10.60;70.30
49549;DHT22;35450;44.518;7.466;2024-02-21T08:27:58;10.60;71.10
49549;DHT22;35450;44.518;7.466;2024-02-21T08:31:03;10.70;70.90
49549;DHT22;35450;44.518;7.466;2024-02-21T08:34:09;10.70;71.30
49549;DHT22;35450;44.518;7.466;2024-02-21T08:37:14;10.80;71.50
49549;DHT22;35450;44.518;7.466;2024-02-21T08:40:18;10.80;71.50
49549;DHT22;35450;44.518;7.466;2024-02-21T08:43:24;10.80;71.60
49549;DHT22;35450;44.518;7.466;2024-02-21T08:46:29;10.80;70.80
49549;DHT22;35450;44.518;7.466;2024-02-21T08:49:33;10.90;70.60
49549;DHT22;35450;44.518;7.466;2024-02-21T08:52:37;11.00;70.20
49549;DHT22;35450;44.518;7.466;2024-02-21T08:55:41;11.00;70.00
49549;DHT22;35450;44.518;7.466;2024-02-21T08:58:45;11.10;70.00
49549;DHT22;35450;44.518;7.466;2024-02-21T09:01:51;11.10;71.00
49549;DHT22;35450;44.518;7.466;2024-02-21T09:04:58;11.10;71.60
49549;DHT22;35450;44.518;7.466;2024-02-21T09:08:03;11.20;71.70
49549;DHT22;35450;44.518;7.466;2024-02-21T09:11:09;11.20;71.50
49549;DHT22;35450;44.518;7.466;2024-02-21T09:14:13;11.30;71.40
49549;DHT22;35450;44.518;7.466;2024-02-21T09:17:17;11.30;72.10
49549;DHT22;35450;44.518;7.466;2024-02-21T09:20:21;11.30;70.80
49549;DHT22;35450;44.518;7.466;2024-02-21T09:23:25;11.30;71.00
49549;DHT22;35450;44.518;7.466;2024-02-21T09:26:29;11.30;70.90
49549;DHT22;35450;44.518;7.466;2024-02-21T09:29:33;11.30;71.30
49549;DHT22;35450;44.518;7.466;2024-02-21T09:32:38;11.20;70.80
49549;DHT22;35450;44.518;7.466;2024-02-21T09:35:43;11.20;69.50
49549;DHT22;35450;44.518;7.466;2024-02-21T09:38:47;11.20;68.90
49549;DHT22;35450;44.518;7.466;2024-02-21T09:41:55;11.20;69.00
49549;DHT22;35450;44.518;7.466;2024-02-21T09:45:04;11.20;69.20
49549;DHT22;35450;44.518;7.466;2024-02-21T09:51:40;11.20;68.50
49549;DHT22;35450;44.518;7.466;2024-02-21T09:54:48;11.30;68.70
49549;DHT22;35450;44.518;7.466;2024-02-21T09:58:03;11.20;69.30
49549;DHT22;35450;44.518;7.466;2024-02-21T10:01:09;11.30;69.90
49549;DHT22;35450;44.518;7.466;2024-02-21T10:04:17;11.30;70.60
49549;DHT22;35450;44.518;7.466;2024-02-21T10:07:22;11.30;71.20
49549;DHT22;35450;44.518;7.466;2024-02-21T10:10:27;11.30;71.60
49549;DHT22;35450;44.518;7.466;2024-02-21T10:13:33;11.30;72.20
49549;DHT22;35450;44.518;7.466;2024-02-21T10:16:37;11.40;72.40
49549;DHT22;35450;44.518;7.466;2024-02-21T10:19:41;11.40;72.50
49549;DHT22;35450;44.518;7.466;2024-02-21T10:22:45;11.40;72.20
49549;DHT22;35450;44.518;7.466;2024-02-21T10:25:50;11.50;70.60
49549;DHT22;35450;44.518;7.466;2024-02-21T10:28:56;11.50;67.30
49549;DHT22;35450;44.518;7.466;2024-02-21T10:32:14;11.60;66.10
49549;DHT22;35450;44.518;7.466;2024-02-21T10:35:30;11.70;66.60
49549;DHT22;35450;44.518;7.466;2024-02-21T10:38:38;11.70;66.80
49549;DHT22;35450;44.518;7.466;2024-02-21T10:41:43;11.80;66.70
49549;DHT22;35450;44.518;7.466;2024-02-21T10:44:51;11.80;65.50
49549;DHT22;35450;44.518;7.466;2024-02-21T10:48:08;11.80;65.70
49549;DHT22;35450;44.518;7.466;2024-02-21T10:51:16;11.70;65.20
49549;DHT22;35450;44.518;7.466;2024-02-21T10:54:42;11.80;66.10
49549;DHT22;35450;44.518;7.466;2024-02-21T10:57:48;11.90;66.30
49549;DHT22;35450;44.518;7.466;2024-02-21T11:00:54;11.90;67.00
49549;DHT22;35450;44.518;7.466;2024-02-21T11:04:02;11.90;67.30
49549;DHT22;35450;44.518;7.466;2024-02-21T11:07:07;11.90;67.60
49549;DHT22;35450;44.518;7.466;2024-02-21T11:10:25;11.90;66.90
49549;DHT22;35450;44.518;7.466;2024-02-21T11:13:30;11.90;70.60
49549;DHT22;35450;44.518;7.466;2024-02-21T11:16:38;12.00;72.50
49549;DHT22;35450;44.518;7.466;2024-02-21T11:19:45;12.00;72.70
49549;DHT22;35450;44.518;7.466;2024-02-21T11:22:49;12.10;71.90
49549;DHT22;35450;44.518;7.466;2024-02-21T11:29:10;12.10;69.00
49549;DHT22;35450;44.518;7.466;2024-02-21T11:32:16;12.10;71.30
49549;DHT22;35450;44.518;7.466;2024-02-21T11:35:20;12.00;74.10
49549;DHT22;35450;44.518;7.466;2024-02-21T11:38:24;12.10;76.50
49549;DHT22;35450;44.518;7.466;2024-02-21T11:41:29;12.20;77.20
49549;DHT22;35450;44.518;7.466;2024-02-21T11:44:34;12.10;77.50
49549;DHT22;35450;44.518;7.466;2024-02-21T11:47:39;12.10;79.90
49549;DHT22;35450;44.518;7.466;2024-02-21T11:50:56;12.10;81.00
49549;DHT22;35450;44.518;7.466;2024-02-21T11:54:00;12.20;82.40
49549;DHT22;35450;44.518;7.466;2024-02-21T11:57:04;12.20;83.40
49549;DHT22;35450;44.518;7.466;2024-02-21T12:00:13;12.20;80.20
49549;DHT22;35450;44.518;7.466;2024-02-21T12:03:18;12.20;81.00
49549;DHT22;35450;44.518;7.466;2024-02-21T12:06:22;12.20;78.90
49549;DHT22;35450;44.518;7.466;2024-02-21T12:09:26;12.20;76.80
49549;DHT22;35450;44.518;7.466;2024-02-21T12:12:31;12.30;78.40
49549;DHT22;35450;44.518;7.466;2024-02-21T12:15:40;12.30;75.40
49549;DHT22;35450;44.518;7.466;2024-02-21T12:18:44;12.30;77.90
49549;DHT22;35450;44.518;7.466;2024-02-21T12:21:49;12.30;78.30
49549;DHT22;35450;44.518;7.466;2024-02-21T12:24:58;12.40;77.10
49549;DHT22;35450;44.518;7.466;2024-02-21T12:28:02;12.50;77.10
49549;DHT22;35450;44.518;7.466;2024-02-21T12:31:07;12.50;76.60
49549;DHT22;35450;44.518;7.466;2024-02-21T12:34:11;12.50;76.20
49549;DHT22;35450;44.518;7.466;2024-02-21T12:37:15;12.60;77.60
49549;DHT22;35450;44.518;7.466;2024-02-21T12:40:20;12.70;77.90
49549;DHT22;35450;44.518;7.466;2024-02-21T12:43:24;12.70;76.00
49549;DHT22;35450;44.518;7.466;2024-02-21T12:46:28;12.70;76.80
49549;DHT22;35450;44.518;7.466;2024-02-21T12:49:31;12.60;77.00
49549;DHT22;35450;44.518;7.466;2024-02-21T12:52:36;12.60;77.50
49549;DHT22;35450;44.518;7.466;2024-02-21T12:55:40;12.60;75.40
49549;DHT22;35450;44.518;7.466;2024-02-21T12:58:45;12.70;77.30
49549;DHT22;35450;44.518;7.466;2024-02-21T13:01:53;12.70;78.20
49549;DHT22;35450;44.518;7.466;2024-02-21T13:04:57;12.70;75.70
49549;DHT22;35450;44.518;7.466;2024-02-21T13:08:01;12.80;75.60
49549;DHT22;35450;44.518;7.466;2024-02-21T13:11:05;12.80;76.60
49549;DHT22;35450;44.518;7.466;2024-02-21T13:14:10;12.80;77.10
49549;DHT22;35450;44.518;7.466;2024-02-21T13:17:14;12.80;77.30
49549;DHT22;35450;44.518;7.466;2024-02-21T13:20:18;12.70;78.50
49549;DHT22;35450;44.518;7.466;2024-02-21T13:23:22;12.70;79.60
49549;DHT22;35450;44.518;7.466;2024-02-21T13:26:26;12.80;79.40
49549;DHT22;35450;44.518;7.466;2024-02-21T13:29:30;12.80;78.00
49549;DHT22;35450;44.518;7.466;2024-02-21T13:32:35;12.80;76.40
49549;DHT22;35450;44.518;7.466;2024-02-21T13:35:44;12.90;76.60
49549;DHT22;35450;44.518;7.466;2024-02-21T13:38:49;12.90;76.10
49549;DHT22;35450;44.518;7.466;2024-02-21T13:41:55;12.90;76.20
49549;DHT22;35450;44.518;7.466;2024-02-21T13:44:59;12.90;75.20
49549;DHT22;35450;44.518;7.466;2024-02-21T13:48:04;12.90;74.30
49549;DHT22;35450;44.518;7.466;2024-02-21T13:51:10;13.00;75.80
49549;DHT22;35450;44.518;7.466;2024-02-21T13:54:16;13.00;73.50
49549;DHT22;35450;44.518;7.466;2024-02-21T13:57:23;13.00;74.30
49549;DHT22;35450;44.518;7.466;2024-02-21T14:00:27;13.00;74.90
49549;DHT22;35450;44.518;7.466;2024-02-21T14:03:31;13.00;73.90
49549;DHT22;35450;44.518;7.466;2024-02-21T14:06:35;13.00;74.20
49549;DHT22;35450;44.518;7.466;2024-02-21T14:09:39;13.10;74.80
49549;DHT22;35450;44.518;7.466;2024-02-21T14:12:44;13.10;72.90
49549;DHT22;35450;44.518;7.466;2024-02-21T14:15:48;13.10;73.30
49549;DHT22;35450;44.518;7.466;2024-02-21T14:18:53;13.20;75.30
49549;DHT22;35450;44.518;7.466;2024-02-21T14:22:00;13.10;75.70
49549;DHT22;35450;44.518;7.466;2024-02-21T14:25:05;13.20;75.50
49549;DHT22;35450;44.518;7.466;2024-02-21T14:28:09;13.20;75.90
49549;DHT22;35450;44.518;7.466;2024-02-21T14:31:13;13.30;75.00
49549;DHT22;35450;44.518;7.466;2024-02-21T14:34:18;13.30;74.40
49549;DHT22;35450;44.518;7.466;2024-02-21T14:37:23;13.30;73.90
49549;DHT22;35450;44.518;7.466;2024-02-21T14:40:27;13.40;74.20
49549;DHT22;35450;44.518;7.466;2024-02-21T14:43:33;13.40;73.60
49549;DHT22;35450;44.518;7.466;2024-02-21T14:46:39;13.50;72.60
49549;DHT22;35450;44.518;7.466;2024-02-21T14:49:43;13.50;72.70
49549;DHT22;35450;44.518;7.466;2024-02-21T14:52:48;13.50;72.90
49549;DHT22;35450;44.518;7.466;2024-02-21T14:55:52;13.40;71.80
49549;DHT22;35450;44.518;7.466;2024-02-21T14:58:56;13.50;71.00
49549;DHT22;35450;44.518;7.466;2024-02-21T15:02:00;13.40;70.00
49549;DHT22;35450;44.518;7.466;2024-02-21T15:05:05;13.40;70.20
49549;DHT22;35450;44.518;7.466;2024-02-21T15:08:09;13.50;71.50
49549;DHT22;35450;44.518;7.466;2024-02-21T15:11:14;13.50;72.60
49549;DHT22;35450;44.518;7.466;2024-02-21T15:14:18;13.40;71.80
49549;DHT22;35450;44.518;7.466;2024-02-21T15:17:22;13.40;72.00
49549;DHT22;35450;44.518;7.466;2024-02-21T15:20:26;13.50;72.80
49549;DHT22;35450;44.518;7.466;2024-02-21T15:23:31;13.50;73.40
49549;DHT22;35450;44.518;7.466;2024-02-21T15:26:35;13.40;73.40
49549;DHT22;35450;44.518;7.466;2024-02-21T15:29:39;13.30;73.70
49549;DHT22;35450;44.518;7.466;2024-02-21T15:32:43;13.30;75.30
49549;DHT22;35450;44.518;7.466;2024-02-21T15:35:47;13.20;75.80
49549;DHT22;35450;44.518;7.466;2024-02-21T15:38:51;13.20;75.90
49549;DHT22;35450;44.518;7.466;2024-02-21T15:41:55;13.20;76.40
49549;DHT22;35450;44.518;7.466;2024-02-21T15:45:00;13.10;76.30
49549;DHT22;35450;44.518;7.466;2024-02-21T15:48:06;13.00;77.20
49549;DHT22;35450;44.518;7.466;2024-02-21T15:51:10;13.00;78.30
49549;DHT22;35450;44.518;7.466;2024-02-21T15:54:14;12.90;78.50
49549;DHT22;35450;44.518;7.466;2024-02-21T15:57:21;12.90;78.90
49549;DHT22;35450;44.518;7.466;2024-02-21T16:00:25;12.80;79.80
49549;DHT22;35450;44.518;7.466;2024-02-21T16:03:30;12.80;80.40
49549;DHT22;35450;44.518;7.466;2024-02-21T16:06:35;12.80;80.90
49549;DHT22;35450;44.518;7.466;2024-02-21T16:09:39;12.70;81.40
49549;DHT22;35450;44.518;7.466;2024-02-21T16:12:48;12.70;81.80
49549;DHT22;35450;44.518;7.466;2024-02-21T16:15:54;12.60;82.30
49549;DHT22;35450;44.518;7.466;2024-02-21T16:18:59;12.60;82.60
49549;DHT22;35450;44.518;7.466;2024-02-21T16:22:03;12.60;82.90
49549;DHT22;35450;44.518;7.466;2024-02-21T16:25:09;12.60;83.10
49549;DHT22;35450;44.518;7.466;2024-02-21T16:28:13;12.60;83.30
49549;DHT22;35450;44.518;7.466;2024-02-21T16:31:18;12.60;83.40
49549;DHT22;35450;44.518;7.466;2024-02-21T16:34:22;12.60;83.70
49549;DHT22;35450;44.518;7.466;2024-02-21T16:37:27;12.60;83.50
49549;DHT22;35450;44.518;7.466;2024-02-21T16:40:33;12.50;83.60
49549;DHT22;35450;44.518;7.466;2024-02-21T16:43:37;12.50;83.90
49549;DHT22;35450;44.518;7.466;2024-02-21T16:46:41;12.40;84.10
49549;DHT22;35450;44.518;7.466;2024-02-21T16:49:45;12.30;84.10
49549;DHT22;35450;44.518;7.466;2024-02-21T16:52:49;12.40;84.20
49549;DHT22;35450;44.518;7.466;2024-02-21T16:55:53;12.40;84.00
49549;DHT22;35450;44.518;7.466;2024-02-21T16:58:57;12.40;84.00
49549;DHT22;35450;44.518;7.466;2024-02-21T17:02:02;12.40;84.60
49549;DHT22;35450;44.518;7.466;2024-02-21T17:05:07;12.30;84.90
49549;DHT22;35450;44.518;7.466;2024-02-21T17:08:15;12.20;85.20
49549;DHT22;35450;44.518;7.466;2024-02-21T17:11:19;11.90;85.30
49549;DHT22;35450;44.518;7.466;2024-02-21T17:14:23;11.70;85.20
49549;DHT22;35450;44.518;7.466;2024-02-21T17:17:29;11.60;85.60
49549;DHT22;35450;44.518;7.466;2024-02-21T17:20:33;11.40;85.70
49549;DHT22;35450;44.518;7.466;2024-02-21T17:23:37;11.40;85.90
49549;DHT22;35450;44.518;7.466;2024-02-21T17:26:41;11.40;85.60
49549;DHT22;35450;44.518;7.466;2024-02-21T17:29:46;11.30;84.90
49549;DHT22;35450;44.518;7.466;2024-02-21T17:32:53;11.30;84.80
49549;DHT22;35450;44.518;7.466;2024-02-21T17:35:57;11.40;85.30
49549;DHT22;35450;44.518;7.466;2024-02-21T17:39:01;11.30;84.80
49549;DHT22;35450;44.518;7.466;2024-02-21T17:42:06;11.30;84.20
49549;DHT22;35450;44.518;7.466;2024-02-21T17:45:10;11.30;84.40
49549;DHT22;35450;44.518;7.466;2024-02-21T17:48:14;11.40;84.90
49549;DHT22;35450;44.518;7.466;2024-02-21T17:51:18;11.40;84.80
49549;DHT22;35450;44.518;7.466;2024-02-21T17:54:22;11.30;85.00
49549;DHT22;35450;44.518;7.466;2024-02-21T17:57:27;11.10;85.30
49549;DHT22;35450;44.518;7.466;2024-02-21T18:00:31;11.20;84.90
49549;DHT22;35450;44.518;7.466;2024-02-21T18:03:36;11.20;83.90
49549;DHT22;35450;44.518;7.466;2024-02-21T18:06:40;11.20;83.90
49549;DHT22;35450;44.518;7.466;2024-02-21T18:09:44;11.30;83.70
49549;DHT22;35450;44.518;7.466;2024-02-21T18:12:48;11.40;83.90
49549;DHT22;35450;44.518;7.466;2024-02-21T18:15:52;11.40;84.50
49549;DHT22;35450;44.518;7.466;2024-02-21T18:18:56;11.50;85.20
49549;DHT22;35450;44.518;7.466;2024-02-21T18:22:01;11.60;85.60
49549;DHT22;35450;44.518;7.466;2024-02-21T18:25:06;11.50;84.60
49549;DHT22;35450;44.518;7.466;2024-02-21T18:28:12;11.40;82.20
49549;DHT22;35450;44.518;7.466;2024-02-21T18:31:16;11.30;81.60
49549;DHT22;35450;44.518;7.466;2024-02-21T18:34:21;11.30;82.40
49549;DHT22;35450;44.518;7.466;2024-02-21T18:37:25;11.30;81.10
49549;DHT22;35450;44.518;7.466;2024-02-21T18:40:33;11.30;82.00
49549;DHT22;35450;44.518;7.466;2024-02-21T18:43:36;11.30;82.60
49549;DHT22;35450;44.518;7.466;2024-02-21T18:46:41;11.30;82.50
49549;DHT22;35450;44.518;7.466;2024-02-21T18:49:45;11.20;82.90
49549;DHT22;35450;44.518;7.466;2024-02-21T18:52:49;11.10;82.70
49549;DHT22;35450;44.518;7.466;2024-02-21T18:55:55;11.00;82.80
49549;DHT22;35450;44.518;7.466;2024-02-21T18:58:59;11.00;82.90
49549;DHT22;35450;44.518;7.466;2024-02-21T19:02:04;11.10;82.50
49549;DHT22;35450;44.518;7.466;2024-02-21T19:05:08;11.20;81.80
49549;DHT22;35450;44.518;7.466;2024-02-21T19:08:12;11.10;82.10
49549;DHT22;35450;44.518;7.466;2024-02-21T19:11:16;11.00;83.50
49549;DHT22;35450;44.518;7.466;2024-02-21T19:14:20;11.10;82.90
49549;DHT22;35450;44.518;7.466;2024-02-21T19:17:24;11.10;83.10
49549;DHT22;35450;44.518;7.466;2024-02-21T19:20:29;11.00;83.20
49549;DHT22;35450;44.518;7.466;2024-02-21T19:23:33;11.10;82.20
49549;DHT22;35450;44.518;7.466;2024-02-21T19:26:37;11.10;81.90
49549;DHT22;35450;44.518;7.466;2024-02-21T19:29:41;11.10;82.40
49549;DHT22;35450;44.518;7.466;2024-02-21T19:32:45;11.00;83.30
49549;DHT22;35450;44.518;7.466;2024-02-21T19:35:49;10.90;83.10
49549;DHT22;35450;44.518;7.466;2024-02-21T19:38:53;10.90;83.00
49549;DHT22;35450;44.518;7.466;2024-02-21T19:41:58;10.90;82.70